Latest Weather Observations for Lismore Airport

IDN60801

Issued at 6:52 pm EST Wednesday 12 August 2020 (issued every 10 minutes, with the page automatically refreshed every 10 minutes)

About weather observations | Map of weather stations | Latest weather observations for NSW | Other Formats
Station Details ID: 058214 Name: LISMORE AIRPORT AWS Lat: -28.83 Lon: 153.26 Height: 9.21 m
Data from the previous 72 hours. | See also: Recent months at Lismore Airport
Date/Time
EST
Temp
°C
App
Temp
°C
Dew
Point
°C
Rel
Hum
%
Delta-T
°C
Wind Press
QNH
hPa
Press
MSL
hPa
Rain since
9am
mm
Dir  Spd
km/h
Gust
km/h
Spd
kts
Gust
kts
12/06:30pm 16.9 14.9 12.8 77 2.3 NNE 15 20 8 11 1015.2 1015.2 0.0
12/06:00pm 17.6 15.3 13.1 75 2.5 NNE 17 20 9 11 1014.8 1014.8 0.0
12/05:30pm 18.2 15.9 13.1 72 2.9 NE 17 24 9 13 1014.4 1014.4 0.0
12/05:00pm 19.1 16.3 13.3 69 3.3 NE 20 28 11 15 1014.3 1014.3 0.0
12/04:30pm 20.0 17.4 13.7 67 3.6 NE 20 28 11 15 1014.0 1014.0 0.0
12/04:00pm 20.9 18.2 13.6 63 4.2 NE 20 32 11 17 1014.0 1014.0 0.0
12/03:30pm 21.7 19.4 13.1 58 4.9 NE 17 22 9 12 1014.3 1014.3 0.0
12/03:00pm 22.4 20.6 13.2 56 5.3 NE 15 19 8 10 1014.4 1014.4 0.0
12/02:30pm 22.3 20.1 13.4 57 5.1 NNE 17 22 9 12 1014.7 1014.7 0.0
12/02:00pm 23.4 22.6 11.8 48 6.5 N 7 13 4 7 1015.0 1015.0 0.0
12/01:30pm 23.1 22.0 12.1 50 6.2 ENE 9 17 5 9 1015.5 1015.5 0.0
12/01:00pm 22.4 19.9 12.4 53 5.7 NNW 17 22 9 12 1015.8 1015.8 0.0
12/12:30pm 21.5 20.4 11.8 54 5.4 NNE 9 17 5 9 1016.6 1016.6 0.0
12/12:00pm 21.6 20.9 13.2 59 4.8 NE 9 15 5 8 1017.5 1017.5 0.0
12/11:30am 20.8 19.8 12.2 58 4.8 N 9 15 5 8 1018.3 1018.3 0.0
12/11:00am 20.0 19.1 11.5 58 4.7 NE 7 13 4 7 1018.8 1018.8 0.0
12/10:30am 19.5 20.0 11.5 60 4.4 CALM 0 0 0 0 1019.4 1019.4 0.0
12/10:00am 19.1 19.8 12.1 64 3.9 CALM 0 0 0 0 1020.1 1020.1 0.0
12/09:30am 16.9 17.4 11.6 71 2.9 CALM 0 0 0 0 1020.4 1020.4 0.0
12/09:00am 14.6 14.5 12.1 85 1.3 NNW 4 9 2 5 1020.4 1020.4 0.0
12/08:30am 13.2 12.0 11.6 90 0.9 NNW 9 11 5 6 1020.4 1020.4 0.0
12/08:00am 12.7 11.5 11.6 93 0.6 N 9 11 5 6 1020.3 1020.3 0.0
12/07:30am 11.1 8.7 10.2 94 0.5 NNW 13 17 7 9 1020.0 1020.0 0.0
12/07:00am 10.7 9.0 9.9 95 0.4 N 9 11 5 6 1019.7 1019.7 0.0
12/06:30am 10.1 8.3 9.3 95 0.4 N 9 13 5 7 1019.2 1019.2 0.0
12/06:00am 9.9 8.0 9.1 95 0.4 N 9 11 5 6 1019.2 1019.2 0.0
12/05:30am 10.0 7.4 9.2 95 0.4 NNE 13 17 7 9 1018.4 1018.4 0.0
12/05:00am 9.7 8.1 8.9 95 0.4 NNW 7 13 4 7 1018.8 1018.8 0.0
12/04:30am 9.6 8.0 8.8 95 0.4 NNW 7 9 4 5 1018.2 1018.2 0.0
12/04:00am 9.6 7.2 8.7 94 0.4 N 11 15 6 8 1018.5 1018.5 0.0
12/03:30am 9.7 7.3 8.8 94 0.4 N 11 13 6 7 1018.5 1018.5 0.0
12/03:00am 9.4 7.4 8.5 94 0.4 N 9 11 5 6 1018.9 1018.9 0.0
12/02:30am 9.2 8.8 8.1 93 0.5 CALM 0 0 0 0 1019.1 1019.1 0.0
12/02:00am 9.8 9.6 8.9 94 0.4 CALM 0 0 0 0 1018.9 1018.9 0.0
12/01:30am 10.1 9.6 9.2 94 0.4 NNW 2 6 1 3 1019.1 1019.1 0.0
12/01:00am 10.1 8.2 9.2 94 0.4 N 9 11 5 6 1019.3 1019.3 0.0
12/12:30am 9.9 7.6 9.0 94 0.4 N 11 15 6 8 1019.2 1019.2 0.0
12/12:00am 9.5 7.4 8.4 93 0.5 N 9 13 5 7 1019.2 1019.2 0.0
 
Date/Time
EST
Temp
°C
App
Temp
°C
Dew
Point
°C
Rel
Hum
%
Delta-T
°C
Wind Press
QNH
hPa
Press
MSL
hPa
Rain since
9am
mm
Dir  Spd
km/h
Gust
km/h
Spd
kts
Gust
kts
11/11:30pm 9.4 6.9 8.2 92 0.6 NNW 11 13 6 7 1019.2 1019.2 0.0
11/11:00pm 9.3 7.5 7.9 91 0.7 N 7 9 4 5 1019.3 1019.3 0.0
11/10:30pm 11.0 8.9 9.8 92 0.6 N 11 13 6 7 1019.4 1019.4 0.0
11/10:00pm 10.0 9.7 8.8 92 0.6 CALM 0 0 0 0 1019.4 1019.4 0.0
11/09:30pm 9.6 9.1 8.0 90 0.8 CALM 0 0 0 0 1019.2 1019.2 0.0
11/09:00pm 10.8 10.6 9.2 90 0.8 CALM 0 0 0 0 1019.3 1019.3 0.0
11/08:30pm 10.1 9.6 8.0 87 1.0 CALM 0 0 0 0 1019.3 1019.3 0.0
11/08:00pm 10.5 10.1 8.4 87 1.0 CALM 0 0 0 0 1019.0 1019.0 0.0
11/07:30pm 9.8 9.2 7.6 86 1.0 CALM 0 0 0 0 1019.0 1019.0 0.0
11/07:00pm 11.0 10.6 8.4 84 1.3 CALM 0 0 0 0 1018.7 1018.7 0.0
11/06:30pm 12.2 12.0 8.9 80 1.6 CALM 0 0 0 0 1018.4 1018.4 0.0
11/06:00pm 13.6 13.5 9.3 75 2.2 CALM 0 0 0 0 1018.3 1018.3 0.0
11/05:30pm 15.5 15.4 9.6 68 3.1 CALM 0 0 0 0 1017.9 1017.9 0.0
11/05:00pm 16.6 15.0 10.2 66 3.4 SSE 9 13 5 7 1017.4 1017.4 0.0
11/04:30pm 18.3 16.0 10.4 60 4.2 SE 13 19 7 10 1017.2 1017.2 0.0
11/04:00pm 19.8 19.7 10.8 56 4.9 SSW 2 19 1 10 1017.0 1017.0 0.0
11/03:30pm 18.8 18.8 11.1 61 4.2 ENE 2 7 1 4 1016.9 1016.9 0.0
11/03:00pm 18.1 15.2 11.0 63 3.8 E 17 22 9 12 1016.9 1016.9 0.0
11/02:30pm 19.5 17.5 10.0 54 5.1 SW 11 15 6 8 1017.2 1017.2 0.0
11/02:00pm 19.0 16.9 9.8 55 4.9 SSE 11 19 6 10 1017.3 1017.3 0.0
11/01:30pm 20.0 17.8 10.7 55 5.1 S 13 19 7 10 1017.2 1017.2 0.0
11/01:00pm 19.2 16.1 10.2 56 4.8 SSE 17 24 9 13 1017.4 1017.4 0.0
11/12:30pm 19.1 16.3 9.9 55 4.9 S 15 22 8 12 1017.7 1017.7 0.0
11/12:00pm 19.4 16.2 9.9 54 5.1 S 17 26 9 14 1018.2 1018.2 0.0
11/11:30am 19.4 15.7 9.3 52 5.3 SSE 19 26 10 14 1018.4 1018.4 0.0
11/11:00am 20.0 15.5 9.9 52 5.4 S 24 33 13 18 1018.5 1018.5 0.0
11/10:30am 19.0 14.6 8.9 52 5.3 S 22 32 12 17 1018.7 1018.7 0.0
11/10:00am 18.3 13.0 8.3 52 5.1 SSE 26 33 14 18 1018.9 1018.9 0.0
11/09:30am 18.0 13.0 8.0 52 5.1 SSW 24 37 13 20 1019.1 1019.1 0.0
11/09:00am 17.2 12.7 7.0 51 5.1 SSW 20 28 11 15 1019.2 1019.2 0.0
11/08:30am 16.7 12.2 6.8 52 4.9 SSW 20 30 11 16 1018.9 1018.9 0.0
11/08:00am 15.9 12.7 6.9 55 4.4 SW 13 20 7 11 1019.0 1019.0 0.0
11/07:30am 15.1 11.5 6.7 57 4.1 SW 15 28 8 15 1018.6 1018.6 0.0
11/07:00am 14.9 11.6 6.2 56 4.2 SW 13 22 7 12 1018.2 1018.2 0.0
11/06:30am 14.0 10.7 6.4 60 3.6 SW 13 17 7 9 1017.8 1017.8 0.0
11/06:00am 13.9 10.2 6.3 60 3.6 SW 15 19 8 10 1017.4 1017.4 0.0
11/05:30am 14.2 10.8 5.8 57 4.0 SW 13 20 7 11 1016.8 1016.8 0.0
11/05:00am 14.5 11.5 6.1 57 4.0 SW 11 15 6 8 1016.5 1016.5 0.0
11/04:30am 13.7 11.6 6.6 62 3.4 WSW 7 13 4 7 1015.9 1015.9 0.0
11/04:00am 13.2 11.1 6.8 65 3.1 WSW 7 9 4 5 1015.5 1015.5 0.0
11/03:30am 13.2 10.1 5.4 59 3.6 WSW 11 15 6 8 1015.4 1015.4 0.0
11/03:00am 13.3 10.6 5.5 59 3.7 SW 9 13 5 7 1015.1 1015.1 0.0
11/02:30am 12.8 9.2 5.2 60 3.5 SW 13 19 7 10 1015.0 1015.0 0.0
11/02:00am 12.5 8.9 5.2 61 3.4 SW 13 19 7 10 1014.8 1014.8 0.0
11/01:30am 12.9 8.9 5.1 59 3.6 SW 15 20 8 11 1015.0 1015.0 0.0
11/01:00am 13.2 8.9 5.1 58 3.8 SW 17 24 9 13 1015.1 1015.1 0.0
11/12:30am 13.5 9.6 5.4 58 3.8 SW 15 20 8 11 1015.2 1015.2 0.0
11/12:00am 13.1 9.2 5.5 60 3.6 SW 15 20 8 11 1015.2 1015.2 0.0
 
Date/Time
EST
Temp
°C
App
Temp
°C
Dew
Point
°C
Rel
Hum
%
Delta-T
°C
Wind Press
QNH
hPa
Press
MSL
hPa
Rain since
9am
mm
Dir  Spd
km/h
Gust
km/h
Spd
kts
Gust
kts
10/11:30pm 12.9 9.5 5.8 62 3.3 SW 13 17 7 9 1015.3 1015.3 0.0
10/11:00pm 13.2 9.9 6.3 63 3.3 SW 13 17 7 9 1015.0 1015.0 0.0
10/10:30pm 13.0 9.4 6.6 65 3.1 SW 15 19 8 10 1014.8 1014.8 0.0
10/10:00pm 12.9 9.6 6.5 65 3.1 SW 13 19 7 10 1014.6 1014.6 0.0
10/09:30pm 13.6 10.3 6.2 61 3.5 SW 13 17 7 9 1014.5 1014.5 0.0
10/09:00pm 14.3 10.7 6.6 60 3.7 SSW 15 20 8 11 1014.2 1014.2 0.0
10/08:30pm 13.9 11.0 6.3 60 3.6 SW 11 15 6 8 1014.0 1014.0 0.0
10/08:00pm 14.9 10.9 6.5 57 4.1 SSW 17 22 9 12 1013.9 1013.9 0.0
10/07:30pm 15.6 10.6 6.6 55 4.4 SSW 22 30 12 16 1013.7 1013.7 0.0
10/07:00pm 15.9 10.6 6.9 55 4.4 SSW 24 41 13 22 1013.3 1013.3 0.0
10/06:43pm 16.0 10.0 7.2 56 4.4 SSW 28 39 15 21 1013.1 1013.1 0.0
10/06:30pm 14.8 11.4 7.6 62 3.6 SW 15 20 8 11 1012.9 1012.9 0.0
10/06:00pm 15.6 11.4 7.6 59 4.0 SSW 19 24 10 13 1012.3 1012.3 0.0
10/05:30pm 16.2 11.2 7.9 58 4.2 SSW 24 35 13 19 1011.9 1011.9 0.0
10/05:00pm 17.2 10.8 7.0 51 5.1 SSW 30 43 16 23 1011.8 1011.8 0.0
10/04:30pm 18.2 13.5 6.1 45 6.0 SSW 20 26 11 14 1010.7 1010.7 0.0
10/04:00pm 18.5 12.6 5.7 43 6.3 S 26 35 14 19 1010.1 1010.1 0.0
10/03:30pm 19.3 14.2 4.3 37 7.2 SSW 20 32 11 17 1009.4 1009.4 0.0
10/03:00pm 20.7 15.8 5.1 36 7.7 SSW 20 32 11 17 1009.0 1009.0 0.0
10/02:30pm 19.6 14.5 4.1 36 7.4 SW 20 30 11 16 1008.9 1008.9 0.0
10/02:00pm 18.7 13.0 2.9 35 7.3 SSW 22 30 12 16 1009.1 1009.1 0.0
10/01:30pm 18.3 12.2 3.0 36 7.1 SW 24 35 13 19 1009.1 1009.1 0.0
10/01:00pm 18.5 12.5 3.6 37 7.0 SSW 24 35 13 19 1009.3 1009.3 0.0
10/12:30pm 18.3 12.8 3.8 38 6.8 SW 22 30 12 16 1009.5 1009.5 0.0
10/12:00pm 17.3 11.7 3.6 40 6.4 SSW 22 32 12 17 1009.9 1009.9 0.0
10/11:30am 16.7 11.3 4.7 45 5.7 WSW 22 35 12 19 1010.3 1010.3 0.0
10/11:00am 16.8 12.2 5.4 47 5.5 SW 19 30 10 16 1010.5 1010.5 0.0
10/10:30am 14.6 9.5 4.0 49 4.9 W 20 32 11 17 1010.8 1010.8 0.0
10/10:00am 15.5 10.1 4.3 47 5.2 W 22 32 12 17 1010.7 1010.7 0.0
10/09:30am 15.2 9.8 4.6 49 4.9 W 22 32 12 17 1011.0 1011.0 0.0
10/09:00am 14.3 8.1 4.3 51 4.6 W 26 37 14 20 1011.1 1011.1 0.0
10/08:30am 13.9 8.0 3.9 51 4.5 WSW 24 35 13 19 1010.9 1010.9 0.0
10/08:17am 13.4 7.9 3.8 52 4.3 W 22 33 12 18 1011.0 1011.0 0.0
10/08:00am 12.8 9.2 4.8 58 3.7 W 13 20 7 11 1011.0 1011.0 0.0
10/07:30am 12.5 7.3 3.7 55 3.9 WSW 20 33 11 18 1010.6 1010.6 0.0
10/07:00am 11.7 8.8 4.9 63 3.1 NW 9 13 5 7 1010.3 1010.3 0.0
10/06:30am 10.9 6.4 4.4 64 2.9 W 17 24 9 13 1010.1 1010.1 0.0
10/06:00am 8.9 5.6 4.5 74 1.9 NW 11 17 6 9 1010.1 1010.1 0.0
10/05:30am 9.4 5.4 5.0 74 2.0 NW 15 19 8 10 1010.1 1010.1 0.0
10/05:00am 8.1 4.7 4.1 76 1.7 NNW 11 13 6 7 1009.9 1009.9 0.0
10/04:30am 9.5 5.4 4.3 70 2.3 WNW 15 20 8 11 1009.7 1009.7 0.0
10/04:00am 10.2 5.8 4.8 69 2.4 WNW 17 24 9 13 1009.6 1009.6 0.0
10/03:30am 7.6 3.8 3.8 77 1.6 NW 13 17 7 9 1009.6 1009.6 0.0
10/03:00am 11.1 8.8 4.8 65 2.9 NNW 6 13 3 7 1009.7 1009.7 0.0
10/02:30am 10.3 7.8 4.7 68 2.5 N 7 13 4 7 1009.7 1009.7 0.0
10/02:00am 11.5 7.1 4.5 62 3.2 WNW 17 26 9 14 1010.0 1010.0 0.0
10/01:30am 11.5 6.7 4.5 62 3.2 WNW 19 28 10 15 1010.3 1010.3 0.0
10/01:00am 10.0 5.5 4.4 68 2.5 NW 17 22 9 12 1010.5 1010.5 0.0
10/12:30am 8.9 4.8 4.5 74 1.9 NW 15 19 8 10 1010.7 1010.7 0.0
10/12:00am 9.9 5.3 3.9 66 2.6 NW 17 22 9 12 1010.9 1010.9 0.0
 
Date/Time
EST
Temp
°C
App
Temp
°C
Dew
Point
°C
Rel
Hum
%
Delta-T
°C
Wind Press
QNH
hPa
Press
MSL
hPa
Rain since
9am
mm
Dir  Spd
km/h
Gust
km/h
Spd
kts
Gust
kts
09/11:30pm 9.5 4.5 3.7 67 2.5 NW 19 24 10 13 1011.2 1011.2 0.0
09/11:00pm 11.5 6.0 4.0 60 3.4 WNW 22 28 12 15 1011.3 1011.3 0.0
09/10:30pm 11.0 6.0 3.8 61 3.2 WNW 19 24 10 13 1011.5 1011.5 0.0
09/10:00pm 9.6 5.8 3.8 67 2.5 NW 13 17 7 9 1011.6 1011.6 0.0
09/09:30pm 11.9 7.3 3.7 57 3.7 NW 17 24 9 13 1011.9 1011.9 0.0
09/09:00pm 12.0 7.3 3.3 55 3.8 WNW 17 24 9 13 1012.0 1012.0 0.0
09/08:30pm 12.2 6.6 3.7 56 3.8 WNW 22 33 12 18 1012.0 1012.0 0.0
09/08:00pm 11.9 8.0 3.2 55 3.8 NW 13 24 7 13 1012.1 1012.1 0.0
09/07:30pm 13.3 7.6 3.1 50 4.5 W 22 30 12 16 1012.1 1012.1 0.0
09/07:00pm 13.2 8.1 3.3 51 4.4 W 19 30 10 16 1011.9 1011.9 0.0

Other formats

Comma delimited format used in spreadsheet applications
http://www.bom.gov.au/fwo/IDN60801/IDN60801.94572.axf

JavaScript Object Notation format (JSON) in row-major order
http://www.bom.gov.au/fwo/IDN60801/IDN60801.94572.json

Data quality

Most of these data are generated automatically and are frequently updated. Quality checks on data are not normally performed. It is possible for incorrect values to appear. Refer to information at About Latest Weather Observations and please check the disclaimer before using these data.